Time;durP1;ratioP1;P1;durP2;ratioP2;P2;SDS_P1;SDS_P2;PMS_P1;PMS_P2;Temp;Humidity;BMP_temperature;BMP_pressure;BME280_temperature;BME280_humidity;BME280_pressure;Samples;Min_cycle;Max_cycle;Signal;HPM_P1;HPM_P2
2021/11/14 00:00:30;;;;;;;33.47;28.48;;;7.90;99.90;;;;;;2670485;28;20875;-67
2021/11/14 00:01:48;;;;;;;32.47;27.73;;;7.80;99.90;;;;;;2670447;28;20301;-67
2021/11/14 00:03:06;;;;;;;34.60;28.13;;;7.80;99.90;;;;;;2670231;28;20260;-68
2021/11/14 00:04:24;;;;;;;33.33;29.37;;;7.90;99.90;;;;;;2669779;28;20245;-67
2021/11/14 00:05:43;;;;;;;35.92;29.05;;;7.90;99.90;;;;;;2669927;28;20609;-68
2021/11/14 00:07:01;;;;;;;31.77;25.85;;;7.90;99.90;;;;;;2669986;28;20844;-67
2021/11/14 00:08:20;;;;;;;32.50;27.58;;;7.80;99.90;;;;;;2669580;28;20713;-68
2021/11/14 00:09:38;;;;;;;32.00;27.23;;;7.90;99.90;;;;;;2669574;28;20826;-67
2021/11/14 00:10:57;;;;;;;33.05;28.05;;;8.00;99.90;;;;;;2674513;28;20682;-68
2021/11/14 00:12:15;;;;;;;30.20;27.00;;;7.90;99.90;;;;;;2670904;28;20669;-68
2021/11/14 00:13:32;;;;;;;31.48;26.90;;;7.90;99.90;;;;;;2671333;28;20535;-68
2021/11/14 00:14:51;;;;;;;31.63;26.80;;;7.90;99.90;;;;;;2668588;28;20313;-68
2021/11/14 00:16:11;;;;;;;36.15;30.00;;;8.00;99.90;;;;;;2670110;28;20563;-67
2021/11/14 00:17:29;;;;;;;35.17;28.35;;;7.90;99.90;;;;;;2669796;28;20211;-67
2021/11/14 00:18:47;;;;;;;32.03;27.65;;;7.90;99.90;;;;;;2670007;28;20244;-68
2021/11/14 00:20:05;;;;;;;33.00;26.65;;;7.80;99.90;;;;;;2670114;28;20210;-67
2021/11/14 00:21:23;;;;;;;32.10;28.20;;;7.90;99.90;;;;;;2670313;28;20222;-68
2021/11/14 00:22:41;;;;;;;32.47;26.88;;;7.80;99.90;;;;;;2670079;28;20202;-67
2021/11/14 00:23:59;;;;;;;31.70;27.90;;;7.80;99.90;;;;;;2669614;28;20283;-68
2021/11/14 00:25:18;;;;;;;30.63;26.55;;;7.80;99.90;;;;;;2669778;28;20293;-68
2021/11/14 00:26:36;;;;;;;36.00;28.42;;;7.70;99.90;;;;;;2669985;28;20233;-67
2021/11/14 00:27:54;;;;;;;30.08;26.48;;;7.70;99.90;;;;;;2669783;28;20233;-67
2021/11/14 00:29:12;;;;;;;32.10;27.40;;;7.70;99.90;;;;;;2669821;28;20635;-68
2021/11/14 00:30:30;;;;;;;34.05;27.25;;;7.70;99.90;;;;;;2670310;28;20647;-68
2021/11/14 00:31:48;;;;;;;36.63;29.00;;;7.70;99.90;;;;;;2670024;28;20241;-68
2021/11/14 00:33:07;;;;;;;32.92;28.08;;;7.70;99.90;;;;;;2669971;28;20264;-68
2021/11/14 00:34:25;;;;;;;32.55;26.55;;;7.80;99.90;;;;;;2669082;28;20206;-68
2021/11/14 00:35:43;;;;;;;31.58;28.17;;;7.80;99.90;;;;;;2669971;28;20198;-68
2021/11/14 00:37:02;;;;;;;33.15;28.30;;;7.80;99.90;;;;;;2669411;28;20199;-68
2021/11/14 00:38:20;;;;;;;33.88;30.30;;;7.90;99.90;;;;;;2669071;28;20724;-68
2021/11/14 00:39:37;;;;;;;31.08;27.58;;;7.80;99.90;;;;;;2669378;28;20202;-68
2021/11/14 00:40:56;;;;;;;34.00;28.13;;;7.80;99.90;;;;;;2670014;28;20292;-68
2021/11/14 00:42:14;;;;;;;34.88;28.85;;;7.80;99.90;;;;;;2669300;28;20206;-68
2021/11/14 00:43:33;;;;;;;35.22;27.02;;;7.80;99.90;;;;;;2669889;28;20256;-68
2021/11/14 00:44:50;;;;;;;32.25;27.50;;;7.70;99.90;;;;;;2668788;28;20878;-67
2021/11/14 00:46:10;;;;;;;36.07;28.40;;;7.80;99.90;;;;;;2669505;28;20225;-68
2021/11/14 00:47:27;;;;;;;33.05;28.00;;;7.80;99.90;;;;;;2669889;28;20634;-68
2021/11/14 00:48:46;;;;;;;37.00;28.70;;;7.80;99.90;;;;;;2669599;28;20209;-68
2021/11/14 00:50:07;;;;;;;36.55;29.08;;;7.80;99.90;;;;;;2661406;28;20207;-67
2021/11/14 00:51:28;;;;;;;31.10;27.05;;;7.80;99.90;;;;;;2658502;28;20214;-68
2021/11/14 00:52:47;;;;;;;35.08;28.08;;;7.80;99.90;;;;;;2658893;28;20286;-67
2021/11/14 00:54:04;;;;;;;33.28;28.73;;;7.80;99.90;;;;;;2659794;28;20742;-67
2021/11/14 00:55:23;;;;;;;34.00;27.90;;;7.80;99.90;;;;;;2659264;28;20230;-68
2021/11/14 00:56:40;;;;;;;33.90;28.10;;;7.80;99.90;;;;;;2659443;28;20199;-68
2021/11/14 00:57:59;;;;;;;34.73;27.23;;;7.90;99.90;;;;;;2658541;28;20285;-68
2021/11/14 00:59:17;;;;;;;30.45;26.77;;;7.90;99.90;;;;;;2658922;28;20214;-68
2021/11/14 01:00:36;;;;;;;34.05;28.77;;;7.80;99.90;;;;;;2659032;28;20573;-68
2021/11/14 01:01:53;;;;;;;34.80;27.73;;;7.80;99.90;;;;;;2659094;28;20633;-67
2021/11/14 01:03:11;;;;;;;33.43;26.67;;;7.70;99.90;;;;;;2666571;28;20226;-68
2021/11/14 01:04:29;;;;;;;39.03;28.73;;;7.70;99.90;;;;;;2669097;28;20236;-68
2021/11/14 01:05:47;;;;;;;33.00;27.87;;;7.70;99.90;;;;;;2669077;28;20700;-68
2021/11/14 01:07:05;;;;;;;35.55;29.00;;;7.70;99.90;;;;;;2666417;28;20830;-68
2021/11/14 01:08:23;;;;;;;33.83;28.10;;;7.70;99.90;;;;;;2667599;28;20198;-67
2021/11/14 01:09:41;;;;;;;33.33;29.52;;;7.80;99.90;;;;;;2668837;28;20210;-68
2021/11/14 01:11:02;;;;;;;35.17;29.00;;;7.70;99.90;;;;;;2673292;28;20650;-68
2021/11/14 01:12:19;;;;;;;35.03;27.95;;;7.70;99.90;;;;;;2676227;28;20198;-68
2021/11/14 01:13:38;;;;;;;34.10;28.47;;;7.70;99.90;;;;;;2666758;28;20210;-68
2021/11/14 01:14:55;;;;;;;36.80;28.58;;;7.70;99.90;;;;;;2679974;28;20282;-68
2021/11/14 01:16:14;;;;;;;37.00;31.07;;;7.70;99.90;;;;;;2680234;28;20221;-68
2021/11/14 01:17:32;;;;;;;34.20;27.33;;;7.70;99.90;;;;;;2675587;28;20929;-68
2021/11/14 01:18:51;;;;;;;30.65;26.17;;;7.70;99.90;;;;;;2669690;28;20214;-68
2021/11/14 01:20:08;;;;;;;34.58;29.80;;;7.70;99.90;;;;;;2665238;28;20199;-68
2021/11/14 01:21:28;;;;;;;34.43;28.53;;;7.70;99.90;;;;;;2667820;28;20285;-68
2021/11/14 01:22:45;;;;;;;37.90;27.55;;;7.70;99.90;;;;;;2664960;28;20663;-69
2021/11/14 01:24:03;;;;;;;37.23;27.47;;;7.60;99.90;;;;;;2669198;28;20210;-68
2021/11/14 01:25:21;;;;;;;35.33;28.02;;;7.60;99.90;;;;;;2669152;28;20627;-68
2021/11/14 01:26:39;;;;;;;37.20;27.40;;;7.60;99.90;;;;;;2669648;28;20226;-69
2021/11/14 01:27:57;;;;;;;34.90;27.33;;;7.60;99.90;;;;;;2669541;28;20730;-68
2021/11/14 01:29:15;;;;;;;32.93;26.53;;;7.60;99.90;;;;;;2669538;28;20214;-69
2021/11/14 01:30:33;;;;;;;37.50;27.58;;;7.70;99.90;;;;;;2669346;28;20635;-68
2021/11/14 01:31:51;;;;;;;33.00;25.83;;;7.70;99.90;;;;;;2669201;28;20209;-68
2021/11/14 01:33:10;;;;;;;34.90;27.80;;;7.70;99.90;;;;;;2669723;28;20257;-68
2021/11/14 01:34:28;;;;;;;32.10;27.42;;;7.70;99.90;;;;;;2668726;28;20212;-68
2021/11/14 01:35:46;;;;;;;33.67;26.23;;;7.70;99.90;;;;;;2669158;28;20214;-68
2021/11/14 01:37:04;;;;;;;32.17;26.70;;;7.70;99.90;;;;;;2669462;28;20222;-68
2021/11/14 01:38:22;;;;;;;35.53;26.80;;;7.60;99.90;;;;;;2668578;28;20240;-68
2021/11/14 01:39:40;;;;;;;34.10;26.07;;;7.60;99.90;;;;;;2668627;28;20221;-69
2021/11/14 01:40:58;;;;;;;33.08;26.10;;;7.60;99.90;;;;;;2668902;28;20198;-68
2021/11/14 01:42:16;;;;;;;30.20;25.20;;;7.60;99.90;;;;;;2669304;28;20290;-68
2021/11/14 01:43:34;;;;;;;33.50;26.60;;;7.70;99.90;;;;;;2669412;28;20351;-68
2021/11/14 01:44:52;;;;;;;33.23;27.50;;;7.70;99.90;;;;;;2668258;28;20265;-68
2021/11/14 01:46:11;;;;;;;37.20;28.80;;;7.70;99.90;;;;;;2668444;28;20233;-68
2021/11/14 01:47:28;;;;;;;35.70;27.60;;;7.70;99.90;;;;;;2668384;28;20237;-68
2021/11/14 01:48:47;;;;;;;37.07;28.47;;;7.70;99.90;;;;;;2669227;28;20649;-68
2021/11/14 01:50:04;;;;;;;34.63;26.70;;;7.70;99.90;;;;;;2669572;28;20216;-68
2021/11/14 01:51:23;;;;;;;35.73;28.13;;;7.70;99.90;;;;;;2669105;28;20683;-68
2021/11/14 01:52:40;;;;;;;35.92;30.10;;;7.70;99.90;;;;;;2668931;28;20608;-68
2021/11/14 01:53:59;;;;;;;33.53;28.60;;;7.60;99.90;;;;;;2668416;28;20291;-68
2021/11/14 01:55:16;;;;;;;38.08;31.20;;;7.60;99.90;;;;;;2668527;28;20287;-68
2021/11/14 01:56:35;;;;;;;35.63;25.97;;;7.60;99.90;;;;;;2669032;28;20214;-68
2021/11/14 01:57:53;;;;;;;33.10;27.35;;;7.70;99.90;;;;;;2668270;28;20614;-68
2021/11/14 01:59:11;;;;;;;31.75;25.70;;;7.70;99.90;;;;;;2669207;28;20206;-68
2021/11/14 02:00:29;;;;;;;30.20;24.10;;;7.70;99.90;;;;;;2669182;28;20962;-68
2021/11/14 02:01:48;;;;;;;30.40;25.45;;;7.70;99.90;;;;;;2669068;28;20216;-68
2021/11/14 02:03:05;;;;;;;33.28;25.63;;;7.70;99.90;;;;;;2669187;28;20317;-68
2021/11/14 02:04:24;;;;;;;34.80;27.50;;;7.70;99.90;;;;;;2668055;28;20209;-68
2021/11/14 02:05:41;;;;;;;35.92;25.45;;;7.70;99.90;;;;;;2668849;28;20217;-68
2021/11/14 02:06:59;;;;;;;36.27;27.00;;;7.60;99.90;;;;;;2668225;28;20240;-68
2021/11/14 02:08:17;;;;;;;31.20;25.05;;;7.70;99.90;;;;;;2668698;28;20269;-69
2021/11/14 02:09:35;;;;;;;33.40;25.00;;;7.80;99.90;;;;;;2667275;28;20230;-68
2021/11/14 02:10:54;;;;;;;29.02;23.98;;;7.70;99.90;;;;;;2673735;28;20214;-68
2021/11/14 02:12:11;;;;;;;31.45;25.00;;;7.70;99.90;;;;;;2673941;28;20200;-68
2021/11/14 02:13:30;;;;;;;35.30;26.10;;;7.70;99.90;;;;;;2670287;28;20195;-68
2021/11/14 02:14:48;;;;;;;33.90;25.90;;;7.60;99.90;;;;;;2678961;28;20225;-69
2021/11/14 02:16:07;;;;;;;33.63;25.40;;;7.60;99.90;;;;;;2679272;28;20213;-68
2021/11/14 02:17:25;;;;;;;34.17;26.23;;;7.60;99.90;;;;;;2679682;28;20263;-68
2021/11/14 02:18:43;;;;;;;31.75;26.85;;;7.60;99.90;;;;;;2679528;28;20271;-68
2021/11/14 02:20:01;;;;;;;35.90;28.73;;;7.60;99.90;;;;;;2679536;28;20339;-68
2021/11/14 02:21:19;;;;;;;33.50;27.92;;;7.60;99.90;;;;;;2679420;28;20201;-68
2021/11/14 02:22:37;;;;;;;35.87;27.00;;;7.60;99.90;;;;;;2679048;28;20580;-68
2021/11/14 02:23:56;;;;;;;35.42;26.80;;;7.60;99.90;;;;;;2678920;28;20233;-68
2021/11/14 02:25:13;;;;;;;37.97;26.05;;;7.60;99.90;;;;;;2678396;28;20201;-68
2021/11/14 02:26:32;;;;;;;38.40;28.13;;;7.60;99.90;;;;;;2664316;28;20202;-68
2021/11/14 02:27:49;;;;;;;32.17;26.95;;;7.60;99.90;;;;;;2669000;28;20218;-68
2021/11/14 02:29:08;;;;;;;32.47;25.67;;;7.70;99.90;;;;;;2669027;28;20214;-68
2021/11/14 02:30:26;;;;;;;29.90;25.63;;;7.70;99.90;;;;;;2668706;28;20214;-68
2021/11/14 02:31:44;;;;;;;31.55;25.77;;;7.80;99.90;;;;;;2669116;28;20222;-68
2021/11/14 02:33:02;;;;;;;33.75;26.23;;;7.80;99.90;;;;;;2668742;28;20241;-68
2021/11/14 02:34:21;;;;;;;30.33;23.67;;;7.80;99.90;;;;;;2667856;28;20214;-68
2021/11/14 02:35:38;;;;;;;30.13;26.52;;;7.80;99.90;;;;;;2668361;28;20198;-68
2021/11/14 02:36:57;;;;;;;30.87;25.27;;;7.80;99.90;;;;;;2668750;28;20209;-68
2021/11/14 02:38:15;;;;;;;29.52;24.52;;;7.80;99.90;;;;;;2668374;28;20198;-68
2021/11/14 02:39:34;;;;;;;32.75;25.92;;;7.70;99.90;;;;;;2668083;28;20801;-68
2021/11/14 02:40:52;;;;;;;32.13;24.30;;;7.70;99.90;;;;;;2668543;28;20201;-68
2021/11/14 02:42:10;;;;;;;32.38;25.63;;;7.70;99.90;;;;;;2668598;28;20232;-68
2021/11/14 02:43:28;;;;;;;31.80;24.97;;;7.80;99.90;;;;;;2668810;28;20210;-68
2021/11/14 02:44:46;;;;;;;30.02;23.15;;;7.80;99.90;;;;;;2668543;28;20210;-68
2021/11/14 02:46:05;;;;;;;30.60;23.83;;;7.80;99.90;;;;;;2668968;28;20230;-68
2021/11/14 02:47:22;;;;;;;30.70;25.27;;;7.80;99.90;;;;;;2668446;28;20283;-68
2021/11/14 02:48:41;;;;;;;33.50;25.33;;;7.80;99.90;;;;;;2668723;28;20808;-68
2021/11/14 02:49:59;;;;;;;31.40;25.02;;;7.80;99.90;;;;;;2668566;28;20205;-68
2021/11/14 02:51:18;;;;;;;32.50;23.98;;;7.80;99.90;;;;;;2668613;28;20206;-68
2021/11/14 02:52:35;;;;;;;40.95;25.23;;;7.70;99.90;;;;;;2668625;28;20290;-68
2021/11/14 02:53:53;;;;;;;38.70;26.40;;;7.70;99.90;;;;;;2668311;28;20209;-68
2021/11/14 02:55:11;;;;;;;125.57;29.92;;;7.70;99.90;;;;;;2667998;28;20210;-68
2021/11/14 02:56:29;;;;;;;33.67;24.87;;;7.70;99.90;;;;;;2668433;28;20194;-68
2021/11/14 02:57:47;;;;;;;31.70;24.73;;;7.60;99.90;;;;;;2668468;28;20210;-68
2021/11/14 02:59:06;;;;;;;30.40;24.70;;;7.70;99.90;;;;;;2668860;28;20206;-68
2021/11/14 03:00:23;;;;;;;29.23;23.75;;;7.70;99.90;;;;;;2668372;28;20281;-69
2021/11/14 03:01:42;;;;;;;35.10;26.83;;;7.70;99.90;;;;;;2668943;28;20213;-68
2021/11/14 03:02:59;;;;;;;30.45;24.23;;;7.70;99.90;;;;;;2668646;28;20202;-68
2021/11/14 03:04:19;;;;;;;32.40;23.83;;;7.70;99.90;;;;;;2667327;28;20273;-68
2021/11/14 03:05:37;;;;;;;26.85;23.10;;;7.80;99.90;;;;;;2668402;28;20214;-68
2021/11/14 03:06:55;;;;;;;32.27;23.00;;;7.70;99.90;;;;;;2666905;28;20684;-68
2021/11/14 03:08:13;;;;;;;33.88;23.92;;;7.80;99.90;;;;;;2665502;28;20197;-69
2021/11/14 03:09:31;;;;;;;30.30;25.40;;;7.80;99.90;;;;;;2666931;28;20287;-68
2021/11/14 03:10:49;;;;;;;30.15;24.13;;;7.80;99.90;;;;;;2670737;28;20194;-68
2021/11/14 03:12:07;;;;;;;31.87;22.20;;;7.70;99.90;;;;;;2670561;28;20446;-68
2021/11/14 03:13:26;;;;;;;32.40;24.65;;;7.70;99.90;;;;;;2669964;28;20289;-68
2021/11/14 03:14:44;;;;;;;32.25;24.92;;;7.70;99.90;;;;;;2675719;28;20194;-68
2021/11/14 03:16:03;;;;;;;31.65;24.00;;;7.70;99.90;;;;;;2668437;28;20282;-68
2021/11/14 03:17:21;;;;;;;31.35;24.33;;;7.80;99.90;;;;;;2668449;28;20622;-68
2021/11/14 03:18:40;;;;;;;30.85;24.23;;;7.80;99.90;;;;;;2668418;28;20263;-68
2021/11/14 03:19:57;;;;;;;28.80;21.60;;;7.70;99.90;;;;;;2668569;28;20229;-68
2021/11/14 03:21:16;;;;;;;31.80;24.97;;;7.70;99.90;;;;;;2669729;28;20205;-68
2021/11/14 03:22:33;;;;;;;30.13;22.67;;;7.70;99.90;;;;;;2670563;28;20202;-68
2021/11/14 03:23:52;;;;;;;27.90;22.27;;;7.80;99.90;;;;;;2669408;28;20229;-69
2021/11/14 03:25:09;;;;;;;28.55;21.02;;;7.80;99.90;;;;;;2670038;28;20198;-68
2021/11/14 03:26:28;;;;;;;31.20;25.00;;;7.80;99.90;;;;;;2670543;28;20256;-68
2021/11/14 03:27:45;;;;;;;28.25;22.80;;;7.90;99.90;;;;;;2670778;28;20226;-68
2021/11/14 03:29:04;;;;;;;30.23;22.60;;;7.80;99.90;;;;;;2670764;28;20201;-68
2021/11/14 03:30:21;;;;;;;28.50;22.58;;;7.80;99.90;;;;;;2670680;28;20252;-68
2021/11/14 03:31:41;;;;;;;28.23;22.63;;;7.90;99.90;;;;;;2669081;28;20234;-68
2021/11/14 03:32:59;;;;;;;29.48;24.00;;;8.00;99.90;;;;;;2668045;28;20205;-68
2021/11/14 03:34:17;;;;;;;30.25;22.85;;;8.00;99.90;;;;;;2660918;28;20737;-68
2021/11/14 03:35:35;;;;;;;29.65;23.83;;;8.00;99.90;;;;;;2660093;28;20735;-68
2021/11/14 03:36:53;;;;;;;29.23;24.30;;;8.00;99.90;;;;;;2660177;28;20238;-68
2021/11/14 03:38:12;;;;;;;30.63;24.42;;;7.90;99.90;;;;;;2661534;28;20211;-68
2021/11/14 03:39:30;;;;;;;28.70;22.92;;;7.80;99.90;;;;;;2670145;28;20271;-68
2021/11/14 03:40:48;;;;;;;32.70;24.73;;;7.80;99.90;;;;;;2670280;28;20648;-68
2021/11/14 03:42:07;;;;;;;32.97;24.85;;;7.80;99.90;;;;;;2670427;28;20244;-68
2021/11/14 03:43:25;;;;;;;28.67;21.90;;;7.80;99.90;;;;;;2670499;28;20202;-68
2021/11/14 03:44:42;;;;;;;34.80;27.08;;;7.80;99.90;;;;;;2669717;28;20201;-68
2021/11/14 03:46:01;;;;;;;32.07;25.80;;;7.80;99.90;;;;;;2670207;28;20702;-68
2021/11/14 03:47:19;;;;;;;29.45;23.25;;;7.80;99.90;;;;;;2670421;28;20657;-68
2021/11/14 03:48:37;;;;;;;33.63;25.37;;;7.80;99.90;;;;;;2670345;28;20214;-68
2021/11/14 03:49:54;;;;;;;29.77;23.83;;;7.70;99.90;;;;;;2670302;28;20655;-68
2021/11/14 03:51:13;;;;;;;31.27;25.50;;;7.80;99.90;;;;;;2669954;28;20206;-68
2021/11/14 03:52:30;;;;;;;31.80;25.13;;;7.70;99.90;;;;;;2670440;28;20264;-68
2021/11/14 03:53:49;;;;;;;32.07;25.43;;;7.70;99.90;;;;;;2670171;28;20295;-69
2021/11/14 03:55:06;;;;;;;28.35;23.25;;;7.70;99.90;;;;;;2669434;28;20202;-68
2021/11/14 03:56:25;;;;;;;32.33;25.67;;;7.70;99.90;;;;;;2670497;28;20202;-68
2021/11/14 03:57:42;;;;;;;35.03;28.27;;;7.70;99.90;;;;;;2670433;28;20194;-68
2021/11/14 03:59:01;;;;;;;30.83;23.90;;;7.80;99.90;;;;;;2670354;28;20614;-68
2021/11/14 04:00:18;;;;;;;33.50;26.58;;;7.80;99.90;;;;;;2670160;28;20654;-68
2021/11/14 04:01:37;;;;;;;34.30;26.07;;;7.70;99.90;;;;;;2670371;28;20210;-69
2021/11/14 04:02:54;;;;;;;31.15;23.90;;;7.70;99.90;;;;;;2670471;28;20682;-68
2021/11/14 04:04:13;;;;;;;34.13;24.10;;;7.70;99.90;;;;;;2669764;28;20206;-68
2021/11/14 04:05:32;;;;;;;28.75;24.60;;;7.70;99.90;;;;;;2669355;28;20206;-68
2021/11/14 04:06:50;;;;;;;31.90;24.25;;;7.70;99.90;;;;;;2669754;28;20261;-68
2021/11/14 04:08:08;;;;;;;38.72;25.63;;;7.60;99.90;;;;;;2670008;28;20788;-69
2021/11/14 04:09:27;;;;;;;36.20;24.47;;;7.60;99.90;;;;;;2668545;28;20198;-68
2021/11/14 04:10:44;;;;;;;36.67;27.85;;;7.60;99.90;;;;;;2664124;28;20203;-68
2021/11/14 04:12:03;;;;;;;39.20;28.23;;;7.50;99.90;;;;;;2669965;28;20210;-68
2021/11/14 04:13:22;;;;;;;37.00;27.23;;;7.50;99.90;;;;;;2671799;28;20263;-68
2021/11/14 04:14:40;;;;;;;39.08;26.48;;;7.50;99.90;;;;;;2679025;28;20190;-68
2021/11/14 04:15:59;;;;;;;35.58;27.70;;;7.50;99.90;;;;;;2680452;28;20650;-68
2021/11/14 04:17:16;;;;;;;43.53;28.38;;;7.50;99.90;;;;;;2680318;28;20254;-69
2021/11/14 04:18:35;;;;;;;41.70;29.10;;;7.50;99.90;;;;;;2681092;28;20330;-68
2021/11/14 04:19:52;;;;;;;37.63;27.35;;;7.50;99.90;;;;;;2680859;28;20263;-68
2021/11/14 04:21:11;;;;;;;43.03;29.73;;;7.50;99.90;;;;;;2680977;28;20209;-68
2021/11/14 04:22:29;;;;;;;42.67;32.10;;;7.40;99.90;;;;;;2680545;28;20868;-68
2021/11/14 04:23:48;;;;;;;44.45;30.10;;;7.50;99.90;;;;;;2680605;28;20728;-68
2021/11/14 04:25:05;;;;;;;41.95;31.20;;;7.50;99.90;;;;;;2675926;28;20336;-68
2021/11/14 04:26:24;;;;;;;38.30;29.13;;;7.40;99.90;;;;;;2670012;28;20198;-68
2021/11/14 04:27:41;;;;;;;40.33;28.83;;;7.40;99.90;;;;;;2670021;28;20254;-68
2021/11/14 04:29:00;;;;;;;45.87;29.97;;;7.50;99.90;;;;;;2670159;28;20205;-68
2021/11/14 04:30:17;;;;;;;42.00;30.45;;;7.40;99.90;;;;;;2669672;28;20206;-68
2021/11/14 04:31:36;;;;;;;40.67;28.30;;;7.40;99.90;;;;;;2670030;28;20329;-68
2021/11/14 04:32:54;;;;;;;44.25;30.40;;;7.40;99.90;;;;;;2668132;28;20283;-68
2021/11/14 04:34:12;;;;;;;42.07;29.77;;;7.40;99.90;;;;;;2669352;28;20209;-68
2021/11/14 04:35:31;;;;;;;35.72;27.38;;;7.40;99.90;;;;;;2670046;28;20706;-68
2021/11/14 04:36:49;;;;;;;39.25;28.70;;;7.40;99.90;;;;;;2670195;28;20256;-69
2021/11/14 04:38:07;;;;;;;42.10;29.27;;;7.40;99.90;;;;;;2666896;28;20208;-68
2021/11/14 04:39:25;;;;;;;36.23;28.50;;;7.40;99.90;;;;;;2658792;28;20660;-68
2021/11/14 04:40:43;;;;;;;37.80;28.52;;;7.50;99.90;;;;;;2669364;28;20278;-68
2021/11/14 04:42:02;;;;;;;39.13;28.70;;;7.50;99.90;;;;;;2670275;28;20198;-68
2021/11/14 04:43:20;;;;;;;39.47;27.92;;;7.50;99.90;;;;;;2669988;28;20206;-68
2021/11/14 04:44:38;;;;;;;37.70;27.47;;;7.50;99.90;;;;;;2669072;28;20209;-69
2021/11/14 04:45:57;;;;;;;41.70;28.08;;;7.50;99.90;;;;;;2669705;28;20986;-68
2021/11/14 04:47:14;;;;;;;35.78;28.05;;;7.60;99.90;;;;;;2669781;28;20234;-69
2021/11/14 04:48:33;;;;;;;30.23;23.90;;;7.60;99.90;;;;;;2669657;28;20210;-69
2021/11/14 04:49:50;;;;;;;35.33;25.60;;;7.60;99.90;;;;;;2669928;28;20206;-68
2021/11/14 04:51:09;;;;;;;39.70;26.33;;;7.70;99.90;;;;;;2669725;28;20769;-68
2021/11/14 04:52:26;;;;;;;36.42;26.55;;;7.60;99.90;;;;;;2669886;28;20202;-68
2021/11/14 04:53:45;;;;;;;41.27;30.07;;;7.70;99.90;;;;;;2669233;28;20234;-68
2021/11/14 04:55:02;;;;;;;37.38;29.52;;;7.80;99.90;;;;;;2669178;28;20206;-68
2021/11/14 04:56:21;;;;;;;37.67;29.10;;;7.80;99.90;;;;;;2669800;28;20782;-69
2021/11/14 04:57:38;;;;;;;36.78;28.27;;;7.70;99.90;;;;;;2669968;28;20854;-69
2021/11/14 04:58:57;;;;;;;32.73;26.00;;;7.70;99.90;;;;;;2670025;28;20206;-69
2021/11/14 05:00:15;;;;;;;32.33;26.30;;;7.70;99.90;;;;;;2669766;28;20736;-68
2021/11/14 05:01:34;;;;;;;37.42;28.00;;;7.60;99.90;;;;;;2669951;28;20332;-69
2021/11/14 05:02:51;;;;;;;33.17;26.95;;;7.60;99.90;;;;;;2669675;28;20210;-69
2021/11/14 05:04:10;;;;;;;32.77;25.27;;;7.60;99.90;;;;;;2668799;28;20660;-69
2021/11/14 05:05:28;;;;;;;36.33;26.33;;;7.60;99.90;;;;;;2668858;28;20210;-69
2021/11/14 05:06:46;;;;;;;30.92;25.27;;;7.60;99.90;;;;;;2669694;28;20562;-68
2021/11/14 05:08:04;;;;;;;32.25;25.90;;;7.60;99.90;;;;;;2669291;28;20222;-68
2021/11/14 05:09:23;;;;;;;34.53;26.43;;;7.60;99.90;;;;;;2668894;28;20237;-68
2021/11/14 05:10:43;;;;;;;31.10;25.17;;;7.60;99.90;;;;;;2673545;28;20449;-68
2021/11/14 05:12:00;;;;;;;32.10;24.80;;;7.60;99.90;;;;;;2675590;28;20214;-68
2021/11/14 05:13:19;;;;;;;32.90;25.33;;;7.60;99.90;;;;;;2671073;28;20571;-68
2021/11/14 05:14:36;;;;;;;32.38;25.67;;;7.70;99.90;;;;;;2677485;28;20201;-69
2021/11/14 05:15:55;;;;;;;31.47;24.43;;;7.70;99.90;;;;;;2680482;28;20744;-68
2021/11/14 05:17:12;;;;;;;31.13;23.73;;;7.70;99.90;;;;;;2680252;28;20209;-68
2021/11/14 05:18:31;;;;;;;30.03;24.03;;;7.60;99.90;;;;;;2680002;28;20705;-69
2021/11/14 05:19:48;;;;;;;29.52;23.60;;;7.60;99.90;;;;;;2680009;28;20202;-68
2021/11/14 05:21:07;;;;;;;30.20;24.80;;;7.60;99.90;;;;;;2671182;28;20749;-68
2021/11/14 05:22:25;;;;;;;35.92;25.65;;;7.60;99.90;;;;;;2669172;28;20574;-69
2021/11/14 05:23:44;;;;;;;32.60;25.60;;;7.60;99.90;;;;;;2669490;28;20202;-68
2021/11/14 05:25:02;;;;;;;29.50;24.20;;;7.60;99.90;;;;;;2668312;28;20663;-68
2021/11/14 05:26:21;;;;;;;30.92;24.98;;;7.50;99.90;;;;;;2658910;28;20206;-69
2021/11/14 05:27:38;;;;;;;31.98;24.83;;;7.60;99.90;;;;;;2658849;28;20230;-69
2021/11/14 05:28:57;;;;;;;33.47;25.67;;;7.60;99.90;;;;;;2658900;28;20622;-68
2021/11/14 05:30:14;;;;;;;32.47;26.10;;;7.50;99.90;;;;;;2659031;28;20672;-68
2021/11/14 05:31:33;;;;;;;37.33;25.27;;;7.50;99.90;;;;;;2659058;28;20348;-68
2021/11/14 05:32:51;;;;;;;32.95;25.73;;;7.50;99.90;;;;;;2658827;28;20238;-68
2021/11/14 05:34:09;;;;;;;37.22;26.20;;;7.50;99.90;;;;;;2658207;28;20203;-68
2021/11/14 05:35:28;;;;;;;34.58;24.83;;;7.50;99.90;;;;;;2659027;28;20203;-68
2021/11/14 05:36:46;;;;;;;36.33;26.23;;;7.50;99.90;;;;;;2658973;28;20701;-68
2021/11/14 05:38:05;;;;;;;36.90;26.63;;;7.40;99.90;;;;;;2666660;28;20567;-68
2021/11/14 05:39:24;;;;;;;32.58;25.98;;;7.40;99.90;;;;;;2667843;28;20206;-68
2021/11/14 05:40:42;;;;;;;37.75;25.98;;;7.40;99.90;;;;;;2669352;28;20279;-68
2021/11/14 05:42:00;;;;;;;33.08;26.38;;;7.40;99.90;;;;;;2669432;28;20206;-69
2021/11/14 05:43:18;;;;;;;32.10;23.50;;;7.40;99.90;;;;;;2669084;28;20238;-69
2021/11/14 05:44:37;;;;;;;32.00;24.38;;;7.40;99.90;;;;;;2661398;28;20199;-69
2021/11/14 05:45:55;;;;;;;38.80;25.85;;;7.40;99.90;;;;;;2662608;28;20206;-69
2021/11/14 05:47:13;;;;;;;36.53;27.92;;;7.30;99.90;;;;;;2669257;28;20729;-69
2021/11/14 05:48:31;;;;;;;29.50;24.23;;;7.30;99.90;;;;;;2669269;28;20319;-68
2021/11/14 05:49:48;;;;;;;31.90;25.60;;;7.30;99.90;;;;;;2669525;28;20225;-68
2021/11/14 05:51:07;;;;;;;34.03;25.50;;;7.30;99.90;;;;;;2669349;28;20554;-68
2021/11/14 05:52:26;;;;;;;31.25;24.88;;;7.20;99.90;;;;;;2668937;28;20195;-68
2021/11/14 05:53:44;;;;;;;34.30;25.45;;;7.20;99.90;;;;;;2669099;28;20217;-68
2021/11/14 05:55:03;;;;;;;30.10;22.92;;;7.20;99.90;;;;;;2667761;28;20395;-68
2021/11/14 05:56:21;;;;;;;32.95;25.40;;;7.10;99.90;;;;;;2668580;28;20205;-68
2021/11/14 05:57:48;;;;;;;38.65;25.27;;;7.00;99.90;;;;;;2669261;28;20263;-68
2021/11/14 05:59:12;;;;;;;33.95;25.25;;;7.00;99.90;;;;;;2669604;28;20244;-68
2021/11/14 06:00:34;;;;;;;32.78;25.52;;;6.90;99.90;;;;;;2668576;28;20644;-68
2021/11/14 06:01:57;;;;;;;31.70;25.08;;;6.90;99.90;;;;;;2669125;28;20203;-69
2021/11/14 06:03:24;;;;;;;35.20;24.67;;;6.90;99.90;;;;;;2669340;28;20205;-68
2021/11/14 06:04:53;;;;;;;35.80;27.10;;;6.90;99.90;;;;;;2667787;28;20233;-68
2021/11/14 06:06:11;;;;;;;36.13;25.80;;;7.00;99.90;;;;;;2668441;28;20895;-69
2021/11/14 06:07:30;;;;;;;39.78;27.98;;;7.00;99.90;;;;;;2663964;28;20217;-69
2021/11/14 06:08:48;;;;;;;34.83;26.25;;;7.00;99.90;;;;;;2669034;28;20249;-68
2021/11/14 06:10:07;;;;;;;39.15;27.25;;;7.00;99.90;;;;;;2671176;28;20254;-68
2021/11/14 06:11:26;;;;;;;38.22;29.58;;;7.00;99.90;;;;;;2672807;28;20201;-68
2021/11/14 06:12:44;;;;;;;38.10;27.20;;;7.00;99.90;;;;;;2670457;28;20634;-68
2021/11/14 06:14:03;;;;;;;35.88;26.65;;;7.00;99.90;;;;;;2671394;28;20194;-68
2021/11/14 06:15:22;;;;;;;39.28;27.70;;;7.10;99.90;;;;;;2679199;28;20227;-68
2021/11/14 06:16:41;;;;;;;40.10;27.63;;;7.10;99.90;;;;;;2679630;28;20284;-68
2021/11/14 06:17:59;;;;;;;39.30;27.83;;;7.10;99.90;;;;;;2679681;28;20296;-68
2021/11/14 06:19:18;;;;;;;37.90;28.05;;;7.10;99.90;;;;;;2679879;28;20206;-68
2021/11/14 06:20:35;;;;;;;40.75;29.08;;;7.10;99.90;;;;;;2679475;28;20212;-68
2021/11/14 06:21:54;;;;;;;44.33;28.57;;;7.20;99.90;;;;;;2679698;28;20789;-68
2021/11/14 06:23:12;;;;;;;39.33;28.65;;;7.20;99.90;;;;;;2671201;28;20214;-68
2021/11/14 06:24:31;;;;;;;37.92;28.35;;;7.20;99.90;;;;;;2668043;28;20206;-68
2021/11/14 06:25:49;;;;;;;39.08;27.85;;;7.20;99.90;;;;;;2668279;28;20256;-68
2021/11/14 06:27:07;;;;;;;37.30;25.83;;;7.20;99.90;;;;;;2669009;28;20946;-68
2021/11/14 06:28:25;;;;;;;39.37;27.40;;;7.20;99.90;;;;;;2668732;28;20238;-68
2021/11/14 06:29:42;;;;;;;39.42;27.70;;;7.20;99.90;;;;;;2669101;28;20634;-68
2021/11/14 06:31:01;;;;;;;39.23;27.63;;;7.20;99.90;;;;;;2668468;28;20204;-68
2021/11/14 06:32:19;;;;;;;39.60;27.00;;;7.20;99.90;;;;;;2668541;28;20317;-69
2021/11/14 06:33:38;;;;;;;35.60;27.95;;;7.30;99.90;;;;;;2669306;28;20256;-68
2021/11/14 06:34:55;;;;;;;38.80;26.80;;;7.30;99.90;;;;;;2667305;28;20210;-68
2021/11/14 06:36:14;;;;;;;36.07;27.67;;;7.30;99.90;;;;;;2668112;28;20207;-68
2021/11/14 06:37:32;;;;;;;35.78;27.98;;;7.30;99.90;;;;;;2668927;28;20252;-68
2021/11/14 06:38:50;;;;;;;36.97;27.77;;;7.30;99.90;;;;;;2667685;28;20266;-68
2021/11/14 06:40:08;;;;;;;42.33;28.80;;;7.30;99.90;;;;;;2667927;28;20295;-70
2021/11/14 06:41:26;;;;;;;39.80;29.50;;;7.30;99.90;;;;;;2669035;28;20209;-70